Clitherall, Minnesota
Current Conditions -  °F | °C
As of 9:15 PM on Wednesday 22 Oct 2014 (Local Time) from KADC Reporting Station
Moderate Rain Moderate Rain  
Wind Chill: 52°   Ceiling: 2300
Heat Index: 52°   Visibility: 7mi
Dew Point: 50°   Wind: 9mph
Humidity: 94%   Direction: 160°SSE
Pressure: 29.93"   Gusts: NA
Location:  46.27°N, 95.63°W
Report Text: KADC 230215Z AUTO 16008KT 7SM RA SCT018 BKN023 OVC050 11/10 A2993 RMK AO2 P0005
Loading
Personal Weather Stations






























Interactive Weather Map
Tropical Storm Tracking
New forecast layout! Learn more

10-Day Weather Forecast

Advertisements
Track Severe Weather on mobile